Anton, Texas
Current Conditions -  °F | °C
As of 11:53 AM on Sunday 25 Jan 2015 (Local Time) from KLBB Reporting Station
Few Clouds Few Clouds  
Wind Chill: 12°   Ceiling: Unl
Heat Index: 12°   Visibility: 10mi
Dew Point: -4°   Wind: 17mph
Humidity: 33%   Direction: 20°NNE
Pressure: 30.24"   Gusts: NA
Location:  33.81°N, 102.16°W
Report Text: KLBB 251753Z 02015KT 10SM FEW250 12/M04 A3024 RMK AO2 SLP231 T01221039 10122 21006 51013
Loading
Personal Weather Stations






























Interactive Weather Map New forecast layout! Learn more

10-Day Weather Forecast

Advertisements
Track Severe Weather on mobile